Time;durP1;ratioP1;P1;durP2;ratioP2;P2;SDS_P1;SDS_P2;PMS_P1;PMS_P2;Temp;Humidity;BMP_temperature;BMP_pressure;BME280_temperature;BME280_humidity;BME280_pressure;Samples;Min_cycle;Max_cycle;Signal;HPM_P1;HPM_P2
2023/04/26 00:01:56;;;;;;;;;;;7.90;99.90;;;;;;5032243;28;20024;-73
2023/04/26 00:04:24;;;;;;;;;;;7.90;99.90;;;;;;5038656;28;20014;-73
2023/04/26 00:06:51;;;;;;;;;;;7.90;99.90;;;;;;5039073;28;19932;-73
2023/04/26 00:09:19;;;;;;;;;;;7.90;99.90;;;;;;5033642;28;19929;-73
2023/04/26 00:11:46;;;;;;;;;;;7.90;99.90;;;;;;5037010;28;19943;-73
2023/04/26 00:14:12;;;;;;;;;;;7.90;99.90;;;;;;5035169;28;19929;-73
2023/04/26 00:16:39;;;;;;;;;;;7.80;99.90;;;;;;5029860;28;19925;-74
2023/04/26 00:19:06;;;;;;;;;;;7.80;99.90;;;;;;5033658;28;19967;-73
2023/04/26 00:21:34;;;;;;;;;;;7.80;99.90;;;;;;5037957;28;22378;-73
2023/04/26 00:24:01;;;;;;;;;;;7.80;99.90;;;;;;5038115;28;20016;-74
2023/04/26 00:26:28;;;;;;;;;;;7.80;99.90;;;;;;5036469;28;19932;-74
2023/04/26 00:28:55;;;;;;;;;;;7.80;99.90;;;;;;5031745;28;19968;-74
2023/04/26 00:31:22;;;;;;;;;;;7.80;99.90;;;;;;5035521;28;19936;-74
2023/04/26 00:33:49;;;;;;;;;;;7.80;99.90;;;;;;5023841;28;19963;-72
2023/04/26 00:36:18;;;;;;;;;;;7.80;99.90;;;;;;5017711;28;19940;-73
2023/04/26 00:38:46;;;;;;;;;;;7.80;99.90;;;;;;5030443;28;20011;-73
2023/04/26 00:41:13;;;;;;;;;;;7.80;99.90;;;;;;5035954;28;19929;-73
2023/04/26 00:43:40;;;;;;;;;;;7.80;99.90;;;;;;5040053;28;19925;-73
2023/04/26 00:46:08;;;;;;;;;;;7.80;99.90;;;;;;5035862;28;20008;-74
2023/04/26 00:48:36;;;;;;;;;;;7.70;99.90;;;;;;5033649;28;19956;-73
2023/04/26 00:51:03;;;;;;;;;;;7.80;99.90;;;;;;5030351;28;19978;-73
2023/04/26 00:53:31;;;;;;;;;;;7.70;99.90;;;;;;5033607;28;20346;-73
2023/04/26 00:55:59;;;;;;;;;;;7.70;99.90;;;;;;5020918;28;19964;-74
2023/04/26 00:58:26;;;;;;;;;;;7.70;99.90;;;;;;5029216;28;20455;-73
2023/04/26 01:00:53;;;;;;;;;;;7.70;99.90;;;;;;5026190;28;19925;-73
2023/04/26 01:03:20;;;;;;;;;;;7.70;99.90;;;;;;5037319;28;19960;-74
2023/04/26 01:05:47;;;;;;;;;;;7.70;99.90;;;;;;5017074;28;20033;-72
2023/04/26 01:08:16;;;;;;;;;;;7.70;99.90;;;;;;5041568;28;19929;-73
2023/04/26 01:10:43;;;;;;;;;;;7.70;99.90;;;;;;5030434;28;19929;-73
2023/04/26 01:13:11;;;;;;;;;;;7.70;99.90;;;;;;5018082;28;19939;-73
2023/04/26 01:15:42;;;;;;;;;;;7.70;99.90;;;;;;5011793;28;19925;-75
2023/04/26 01:18:08;;;;;;;;;;;7.70;99.90;;;;;;5021169;28;19933;-72
2023/04/26 01:20:35;;;;;;;;;;;7.70;99.90;;;;;;5017243;28;20293;-73
2023/04/26 01:23:03;;;;;;;;;;;7.70;99.90;;;;;;5028374;28;19983;-73
2023/04/26 01:25:33;;;;;;;;;;;7.60;99.90;;;;;;5036483;28;19925;-73
2023/04/26 01:28:00;;;;;;;;;;;7.60;99.90;;;;;;5033562;28;20375;-73
2023/04/26 01:30:27;;;;;;;;;;;7.60;99.90;;;;;;5037670;28;19974;-74
2023/04/26 01:32:54;;;;;;;;;;;7.60;99.90;;;;;;5034953;28;20383;-73
2023/04/26 01:35:21;;;;;;;;;;;7.60;99.90;;;;;;5021871;28;19929;-73
2023/04/26 01:37:48;;;;;;;;;;;7.60;99.90;;;;;;5022063;28;20058;-72
2023/04/26 01:40:16;;;;;;;;;;;7.60;99.90;;;;;;5041935;28;20011;-73
2023/04/26 01:42:43;;;;;;;;;;;7.60;99.90;;;;;;5035986;28;19964;-73
2023/04/26 01:45:10;;;;;;;;;;;7.60;99.90;;;;;;5020778;28;20023;-73
2023/04/26 01:47:56;;;;;;;;;;;7.60;99.90;;;;;;5040190;28;20305;-73
2023/04/26 01:50:23;;;;;;;;;;;7.60;99.90;;;;;;5016144;28;19931;-74
2023/04/26 01:52:50;;;;;;;;;;;7.60;99.90;;;;;;5024484;28;19971;-74
2023/04/26 01:55:20;;;;;;;;;;;7.60;99.90;;;;;;5015818;28;20016;-73
2023/04/26 01:57:50;;;;;;;;;;;7.60;99.90;;;;;;5037838;28;19924;-73
2023/04/26 02:00:17;;;;;;;;;;;7.60;99.90;;;;;;5022552;28;20353;-74
2023/04/26 02:02:44;;;;;;;;;;;7.60;99.90;;;;;;5038430;28;19979;-75
2023/04/26 02:05:13;;;;;;;;;;;7.50;99.90;;;;;;5035613;28;20043;-73
2023/04/26 02:07:41;;;;;;;;;;;7.50;99.90;;;;;;5031458;28;19955;-73
2023/04/26 02:10:10;;;;;;;;;;;7.50;99.90;;;;;;5018795;28;19955;-72
2023/04/26 02:12:38;;;;;;;;;;;7.50;99.90;;;;;;5019599;28;19925;-73
2023/04/26 02:15:06;;;;;;;;;;;7.50;99.90;;;;;;5035338;28;21394;-73
2023/04/26 02:17:36;;;;;;;;;;;7.50;99.90;;;;;;5021189;28;19925;-74
2023/04/26 02:20:03;;;;;;;;;;;7.50;99.90;;;;;;5032326;28;19933;-74
2023/04/26 02:22:30;;;;;;;;;;;7.50;99.90;;;;;;5014152;28;19925;-73
2023/04/26 02:24:57;;;;;;;;;;;7.50;99.90;;;;;;5015663;28;19961;-73
2023/04/26 02:27:27;;;;;;;;;;;7.50;99.90;;;;;;5012368;28;19968;-73
2023/04/26 02:29:56;;;;;;;;;;;7.50;99.90;;;;;;5013190;28;19929;-73
2023/04/26 02:32:23;;;;;;;;;;;7.50;99.90;;;;;;5015814;28;19967;-73
2023/04/26 02:34:50;;;;;;;;;;;7.50;99.90;;;;;;5018269;28;19933;-74
2023/04/26 02:37:17;;;;;;;;;;;7.50;99.90;;;;;;5034676;28;19936;-74
2023/04/26 02:39:44;;;;;;;;;;;7.40;99.90;;;;;;5018371;28;19976;-74
2023/04/26 02:42:11;;;;;;;;;;;7.40;99.90;;;;;;5010392;28;19929;-74
2023/04/26 02:44:38;;;;;;;;;;;7.40;99.90;;;;;;5020025;28;20021;-73
2023/04/26 02:47:07;;;;;;;;;;;7.40;99.90;;;;;;5024229;28;19981;-73
2023/04/26 02:49:34;;;;;;;;;;;7.40;99.90;;;;;;5014511;28;19932;-73
2023/04/26 02:52:01;;;;;;;;;;;7.40;99.90;;;;;;5014083;28;19932;-75
2023/04/26 02:54:29;;;;;;;;;;;7.40;99.90;;;;;;5017913;28;19932;-74
2023/04/26 02:56:57;;;;;;;;;;;7.40;99.90;;;;;;5020746;28;19928;-73
2023/04/26 02:59:23;;;;;;;;;;;7.40;99.90;;;;;;5025288;28;19932;-74
2023/04/26 03:01:50;;;;;;;;;;;7.40;99.90;;;;;;5015468;28;19928;-74
2023/04/26 03:04:19;;;;;;;;;;;7.30;99.90;;;;;;5029274;28;20383;-74
2023/04/26 03:06:46;;;;;;;;;;;7.40;99.90;;;;;;5019202;28;20311;-74
2023/04/26 03:09:13;;;;;;;;;;;7.30;99.90;;;;;;5015146;28;19986;-73
2023/04/26 03:11:41;;;;;;;;;;;7.30;99.90;;;;;;5019118;28;19929;-74
2023/04/26 03:14:08;;;;;;;;;;;7.30;99.90;;;;;;5032491;28;19925;-73
2023/04/26 03:16:40;;;;;;;;;;;7.30;99.90;;;;;;5019368;28;19931;-73
2023/04/26 03:19:08;;;;;;;;;;;7.30;99.90;;;;;;5017495;28;19925;-73
2023/04/26 03:21:37;;;;;;;;;;;7.30;99.90;;;;;;5022933;28;20283;-73
2023/04/26 03:24:04;;;;;;;;;;;7.30;99.90;;;;;;5023560;28;20341;-73
2023/04/26 03:26:31;;;;;;;;;;;7.30;99.90;;;;;;5014545;28;19933;-73
2023/04/26 03:28:58;;;;;;;;;;;7.20;99.90;;;;;;5020955;28;19929;-73
2023/04/26 03:31:25;;;;;;;;;;;7.20;99.90;;;;;;5017954;28;19940;-73
2023/04/26 03:33:52;;;;;;;;;;;7.20;99.90;;;;;;5041140;28;20018;-74
2023/04/26 03:36:19;;;;;;;;;;;7.20;99.90;;;;;;5020941;28;19940;-73
2023/04/26 03:38:47;;;;;;;;;;;7.30;99.90;;;;;;5042583;28;19978;-73
2023/04/26 03:41:16;;;;;;;;;;;7.20;99.90;;;;;;5029259;28;19932;-73
2023/04/26 03:43:43;;;;;;;;;;;7.20;99.90;;;;;;5019543;28;19928;-76
2023/04/26 03:46:09;;;;;;;;;;;7.20;99.90;;;;;;5023020;28;19976;-73
2023/04/26 03:48:36;;;;;;;;;;;7.20;99.90;;;;;;5023125;28;19933;-74
2023/04/26 03:51:03;;;;;;;;;;;7.20;99.90;;;;;;5039648;28;19960;-74
2023/04/26 03:53:30;;;;;;;;;;;7.20;99.90;;;;;;5034700;28;19924;-74
2023/04/26 03:55:58;;;;;;;;;;;7.20;99.90;;;;;;5017760;28;19932;-74
2023/04/26 03:58:25;;;;;;;;;;;7.20;99.90;;;;;;5021360;28;19932;-73
2023/04/26 04:00:56;;;;;;;;;;;7.20;99.90;;;;;;5034729;28;19984;-74
2023/04/26 04:03:22;;;;;;;;;;;7.10;99.90;;;;;;5030179;28;19975;-73
2023/04/26 04:05:50;;;;;;;;;;;7.10;99.90;;;;;;5038966;28;20335;-74
2023/04/26 04:08:17;;;;;;;;;;;7.10;99.90;;;;;;5038453;28;19925;-74
2023/04/26 04:10:44;;;;;;;;;;;7.10;99.90;;;;;;5022858;28;19925;-74
2023/04/26 04:13:12;;;;;;;;;;;7.20;99.90;;;;;;5050518;28;19978;-73
2023/04/26 04:15:39;;;;;;;;;;;7.10;99.90;;;;;;5040142;28;19925;-75
2023/04/26 04:18:06;;;;;;;;;;;7.10;99.90;;;;;;5030541;28;19929;-74
2023/04/26 04:20:33;;;;;;;;;;;7.10;99.90;;;;;;5026014;28;19937;-73
2023/04/26 04:23:03;;;;;;;;;;;7.10;99.90;;;;;;5026079;28;19929;-73
2023/04/26 04:25:30;;;;;;;;;;;7.10;99.90;;;;;;5026082;28;19965;-72
2023/04/26 04:28:00;;;;;;;;;;;7.10;99.90;;;;;;5023635;28;19931;-73
2023/04/26 04:30:29;;;;;;;;;;;7.10;99.90;;;;;;5030078;28;19933;-75
2023/04/26 04:32:58;;;;;;;;;;;7.10;99.90;;;;;;5020601;28;20370;-74
2023/04/26 04:35:27;;;;;;;;;;;7.10;99.90;;;;;;5024915;28;19925;-74
2023/04/26 04:37:56;;;;;;;;;;;7.10;99.90;;;;;;5021412;28;20041;-73
2023/04/26 04:40:24;;;;;;;;;;;7.10;99.90;;;;;;5043924;28;19960;-72
2023/04/26 04:42:52;;;;;;;;;;;7.10;99.90;;;;;;5021895;28;20399;-75
2023/04/26 04:45:20;;;;;;;;;;;7.10;99.90;;;;;;5022960;28;20094;-74
2023/04/26 04:47:52;;;;;;;;;;;7.10;99.90;;;;;;5025531;28;19936;-72
2023/04/26 04:50:20;;;;;;;;;;;7.10;99.90;;;;;;5021234;28;19971;-77
2023/04/26 04:52:47;;;;;;;;;;;7.00;99.90;;;;;;5032201;28;20331;-75
2023/04/26 04:55:15;;;;;;;;;;;7.00;99.90;;;;;;5027472;28;19924;-75
2023/04/26 04:57:43;;;;;;;;;;;7.00;99.90;;;;;;5023397;28;19941;-74
2023/04/26 05:00:11;;;;;;;;;;;7.00;99.90;;;;;;5021494;28;20510;-74
2023/04/26 05:02:53;;;;;;;;;;;7.00;99.90;;;;;;5019875;28;19932;-74
2023/04/26 05:05:20;;;;;;;;;;;7.00;99.90;;;;;;5018688;28;20023;-74
2023/04/26 05:07:47;;;;;;;;;;;7.00;99.90;;;;;;5026305;28;19931;-76
2023/04/26 05:10:14;;;;;;;;;;;7.00;99.90;;;;;;5009351;28;20443;-74
2023/04/26 05:12:41;;;;;;;;;;;7.00;99.90;;;;;;5026549;28;19967;-74
2023/04/26 05:15:08;;;;;;;;;;;7.00;99.90;;;;;;5030166;28;20379;-74
2023/04/26 05:17:35;;;;;;;;;;;7.00;99.90;;;;;;5032092;28;19933;-74
2023/04/26 05:20:14;;;;;;;;;;;7.00;99.90;;;;;;5022073;28;20361;-74
2023/04/26 05:22:41;;;;;;;;;;;7.00;99.90;;;;;;5042280;28;19925;-74
2023/04/26 05:25:09;;;;;;;;;;;7.00;99.90;;;;;;5029330;28;20375;-74
2023/04/26 05:27:37;;;;;;;;;;;7.00;99.90;;;;;;5035626;28;19995;-74
2023/04/26 05:30:15;;;;;;;;;;;6.90;99.90;;;;;;5024027;28;19932;-73
2023/04/26 05:32:49;;;;;;;;;;;6.90;99.90;;;;;;5028783;28;20306;-73
2023/04/26 05:35:35;;;;;;;;;;;6.90;99.90;;;;;;5013052;28;19925;-73
2023/04/26 05:38:02;;;;;;;;;;;6.90;99.90;;;;;;5022821;28;20422;-73
2023/04/26 05:40:30;;;;;;;;;;;6.90;99.90;;;;;;5023973;28;19928;-72
2023/04/26 05:42:57;;;;;;;;;;;6.90;99.90;;;;;;5029052;28;19924;-72
2023/04/26 05:45:26;;;;;;;;;;;6.90;99.90;;;;;;5024139;28;19936;-72
2023/04/26 05:47:53;;;;;;;;;;;6.90;99.90;;;;;;5018033;28;20023;-73
2023/04/26 05:50:20;;;;;;;;;;;6.90;99.90;;;;;;5026272;28;19983;-74
2023/04/26 05:52:48;;;;;;;;;;;6.90;99.90;;;;;;5021225;28;20202;-74
2023/04/26 05:55:15;;;;;;;;;;;6.90;99.90;;;;;;5018176;28;20012;-74
2023/04/26 05:57:43;;;;;;;;;;;6.90;99.90;;;;;;5027105;28;20020;-73
2023/04/26 06:00:11;;;;;;;;;;;6.80;99.90;;;;;;5022646;28;19994;-73
2023/04/26 06:02:42;;;;;;;;;;;6.80;99.90;;;;;;5042619;28;19956;-74
2023/04/26 06:05:14;;;;;;;;;;;6.80;99.90;;;;;;5038375;28;19933;-76
2023/04/26 06:07:41;;;;;;;;;;;6.80;99.90;;;;;;5028563;28;19929;-75
2023/04/26 06:10:11;;;;;;;;;;;6.80;99.90;;;;;;5040273;28;19955;-76
2023/04/26 06:12:39;;;;;;;;;;;6.80;99.90;;;;;;5038443;28;19936;-75
2023/04/26 06:15:07;;;;;;;;;;;6.80;99.90;;;;;;5022780;28;20539;-76
2023/04/26 06:17:35;;;;;;;;;;;6.80;99.90;;;;;;5033539;28;19925;-73
2023/04/26 06:20:02;;;;;;;;;;;6.80;99.90;;;;;;5019966;28;19929;-72
2023/04/26 06:22:29;;;;;;;;;;;6.80;99.90;;;;;;5023066;28;19932;-75
2023/04/26 06:24:55;;;;;;;;;;;6.80;99.90;;;;;;5026989;28;20002;-76
2023/04/26 06:27:24;;;;;;;;;;;6.80;99.90;;;;;;5020323;28;20418;-77
2023/04/26 06:29:51;;;;;;;;;;;6.80;99.90;;;;;;5041391;28;19936;-82
2023/04/26 06:32:18;;;;;;;;;;;6.80;99.90;;;;;;5010172;28;19964;-77
2023/04/26 06:34:45;;;;;;;;;;;6.80;99.90;;;;;;5017074;28;20390;-77
2023/04/26 06:37:12;;;;;;;;;;;6.80;99.90;;;;;;5026628;28;19925;-73
2023/04/26 06:39:42;;;;;;;;;;;6.80;99.90;;;;;;5022183;28;20011;-72
2023/04/26 06:42:10;;;;;;;;;;;6.80;99.90;;;;;;5028125;28;19929;-73
2023/04/26 06:45:13;;;;;;;;;;;6.80;99.90;;;;;;5020170;28;19928;-73
2023/04/26 06:47:40;;;;;;;;;;;6.80;99.90;;;;;;5022420;28;20287;-72
2023/04/26 06:50:07;;;;;;;;;;;6.80;99.90;;;;;;5018470;28;19937;-73
2023/04/26 06:52:34;;;;;;;;;;;6.80;99.90;;;;;;5044315;28;20452;-74
2023/04/26 06:55:01;;;;;;;;;;;6.80;99.90;;;;;;5041885;28;20023;-72
2023/04/26 06:57:28;;;;;;;;;;;6.80;99.90;;;;;;5040449;28;20284;-74
2023/04/26 06:59:55;;;;;;;;;;;6.80;99.90;;;;;;5042236;28;20010;-74
2023/04/26 07:02:24;;;;;;;;;;;6.80;99.90;;;;;;5038264;28;19928;-75
2023/04/26 07:04:51;;;;;;;;;;;6.80;99.90;;;;;;5038589;28;19926;-74
2023/04/26 07:07:17;;;;;;;;;;;6.80;99.90;;;;;;5035443;28;20442;-74
2023/04/26 07:09:44;;;;;;;;;;;6.80;99.90;;;;;;5041957;28;19924;-74
2023/04/26 07:12:11;;;;;;;;;;;6.80;99.90;;;;;;5021235;28;20390;-74
2023/04/26 07:14:40;;;;;;;;;;;6.80;99.90;;;;;;5038530;28;19929;-74
2023/04/26 07:17:07;;;;;;;;;;;6.90;99.90;;;;;;5037896;28;20288;-74
2023/04/26 07:19:35;;;;;;;;;;;6.80;99.90;;;;;;5041128;28;19925;-74
2023/04/26 07:22:02;;;;;;;;;;;6.80;99.90;;;;;;5043867;28;19924;-75
2023/04/26 07:24:29;;;;;;;;;;;6.80;99.90;;;;;;5040594;28;19928;-74
2023/04/26 07:26:56;;;;;;;;;;;6.80;99.90;;;;;;5042834;28;19929;-75
2023/04/26 07:29:22;;;;;;;;;;;6.80;99.90;;;;;;5020546;28;19925;-75
2023/04/26 07:31:49;;;;;;;;;;;6.80;99.90;;;;;;5038199;28;22070;-74
2023/04/26 07:34:16;;;;;;;;;;;6.80;99.90;;;;;;5049074;28;19971;-74
2023/04/26 07:36:47;;;;;;;;;;;6.80;99.90;;;;;;5024528;28;19939;-75
2023/04/26 07:39:14;;;;;;;;;;;6.80;99.90;;;;;;5046816;28;19929;-74
2023/04/26 07:41:41;;;;;;;;;;;6.80;99.90;;;;;;5042461;28;19925;-74
2023/04/26 07:44:08;;;;;;;;;;;6.80;99.90;;;;;;5041798;28;19925;-74
2023/04/26 07:46:35;;;;;;;;;;;6.80;99.90;;;;;;5041729;28;19932;-75
2023/04/26 07:49:01;;;;;;;;;;;6.90;99.90;;;;;;5041898;28;20395;-74
2023/04/26 07:51:28;;;;;;;;;;;6.90;99.90;;;;;;5038697;28;19925;-74
2023/04/26 07:53:57;;;;;;;;;;;6.90;99.90;;;;;;5021308;28;19932;-74
2023/04/26 07:56:24;;;;;;;;;;;6.90;99.90;;;;;;5038043;28;19932;-74
2023/04/26 07:58:50;;;;;;;;;;;6.90;99.90;;;;;;5031500;28;20302;-74
2023/04/26 08:01:17;;;;;;;;;;;6.90;99.90;;;;;;5025681;28;20015;-73
2023/04/26 08:03:44;;;;;;;;;;;6.90;99.90;;;;;;5037301;28;19932;-75
2023/04/26 08:06:11;;;;;;;;;;;6.90;99.90;;;;;;5041627;28;19983;-74
2023/04/26 08:08:43;;;;;;;;;;;6.90;99.90;;;;;;5038267;28;19999;-73
2023/04/26 08:11:11;;;;;;;;;;;6.90;99.90;;;;;;5036682;28;19983;-72
2023/04/26 08:13:38;;;;;;;;;;;6.90;99.90;;;;;;5042681;28;19969;-74
2023/04/26 08:16:05;;;;;;;;;;;6.90;99.90;;;;;;5049265;28;19982;-72
2023/04/26 08:18:32;;;;;;;;;;;7.00;99.90;;;;;;5044042;28;19943;-73
2023/04/26 08:20:59;;;;;;;;;;;7.00;99.90;;;;;;5024122;28;19925;-73
2023/04/26 08:23:27;;;;;;;;;;;7.00;99.90;;;;;;5043733;28;19990;-72
2023/04/26 08:25:53;;;;;;;;;;;7.00;99.90;;;;;;5034944;28;19958;-73
2023/04/26 08:28:22;;;;;;;;;;;7.00;99.90;;;;;;5023549;28;20352;-73
2023/04/26 08:30:48;;;;;;;;;;;7.00;99.90;;;;;;5042566;28;19939;-72
2023/04/26 08:33:17;;;;;;;;;;;7.00;99.90;;;;;;5036685;28;19976;-73
2023/04/26 08:35:44;;;;;;;;;;;7.00;99.90;;;;;;5024408;28;20024;-74
2023/04/26 08:38:11;;;;;;;;;;;7.00;99.90;;;;;;5035770;28;20399;-73
2023/04/26 08:40:38;;;;;;;;;;;7.00;99.90;;;;;;5021223;28;19931;-72
2023/04/26 08:43:05;;;;;;;;;;;7.00;99.90;;;;;;5018336;28;19929;-72
2023/04/26 08:45:35;;;;;;;;;;;7.10;99.90;;;;;;5037777;28;19929;-72
2023/04/26 08:48:04;;;;;;;;;;;7.10;99.90;;;;;;5024691;28;20472;-73
2023/04/26 08:50:33;;;;;;;;;;;7.10;99.90;;;;;;5038826;28;19948;-72
2023/04/26 08:53:00;;;;;;;;;;;7.10;99.90;;;;;;5043378;28;19925;-72
2023/04/26 08:55:26;;;;;;;;;;;7.10;99.90;;;;;;5037292;28;19980;-72
2023/04/26 08:57:54;;;;;;;;;;;7.10;99.90;;;;;;5025453;28;20016;-73
2023/04/26 09:00:22;;;;;;;;;;;7.10;99.90;;;;;;5043008;28;20012;-72
2023/04/26 09:02:51;;;;;;;;;;;7.20;99.90;;;;;;5041902;28;19925;-72
2023/04/26 09:05:22;;;;;;;;;;;7.20;99.90;;;;;;5041308;28;19972;-72
2023/04/26 09:07:49;;;;;;;;;;;7.20;99.90;;;;;;5046892;28;20447;-73
2023/04/26 09:10:18;;;;;;;;;;;7.20;99.90;;;;;;5038197;28;20406;-73
2023/04/26 09:12:45;;;;;;;;;;;7.30;99.90;;;;;;5041067;28;19925;-73
2023/04/26 09:15:14;;;;;;;;;;;7.30;99.90;;;;;;5038899;28;20021;-72
2023/04/26 09:17:41;;;;;;;;;;;7.30;99.90;;;;;;5042336;28;20474;-73
2023/04/26 09:20:19;;;;;;;;;;;7.30;99.90;;;;;;5026834;28;19947;-73
2023/04/26 09:22:46;;;;;;;;;;;7.30;99.90;;;;;;5034618;28;21432;-72
2023/04/26 09:25:16;;;;;;;;;;;7.30;99.90;;;;;;5036553;28;20008;-73
2023/04/26 09:27:43;;;;;;;;;;;7.30;99.90;;;;;;5040691;28;19979;-73
2023/04/26 09:30:12;;;;;;;;;;;7.30;99.90;;;;;;5045341;28;19928;-72
2023/04/26 09:32:46;;;;;;;;;;;7.30;99.90;;;;;;5036753;28;19925;-73
2023/04/26 09:35:22;;;;;;;;;;;7.30;99.90;;;;;;5038000;28;19951;-73
2023/04/26 09:37:51;;;;;;;;;;;7.40;99.90;;;;;;5044580;28;19925;-72
2023/04/26 09:40:19;;;;;;;;;;;7.40;99.90;;;;;;5031948;28;20310;-73
2023/04/26 09:42:46;;;;;;;;;;;7.40;99.90;;;;;;5023352;28;20425;-73
2023/04/26 09:45:15;;;;;;;;;;;7.40;99.90;;;;;;5047894;28;19925;-73
2023/04/26 09:47:42;;;;;;;;;;;7.40;99.90;;;;;;5029836;28;19931;-73
2023/04/26 09:50:09;;;;;;;;;;;7.40;99.90;;;;;;5037912;28;19931;-73
2023/04/26 09:52:43;;;;;;;;;;;7.50;99.90;;;;;;5016018;28;19983;-72
2023/04/26 09:55:10;;;;;;;;;;;7.50;99.90;;;;;;5018434;28;19925;-73
2023/04/26 09:57:43;;;;;;;;;;;7.50;99.90;;;;;;5041148;28;19991;-73
2023/04/26 10:00:11;;;;;;;;;;;7.50;99.90;;;;;;5038532;28;19929;-73
2023/04/26 10:02:38;;;;;;;;;;;7.50;99.90;;;;;;5047412;28;19925;-74
2023/04/26 10:05:06;;;;;;;;;;;7.50;99.90;;;;;;5042088;28;20393;-74
2023/04/26 10:07:34;;;;;;;;;;;7.50;99.90;;;;;;5043603;28;19924;-73
2023/04/26 10:10:02;;;;;;;;;;;7.60;99.90;;;;;;5037303;28;19940;-73
2023/04/26 10:12:29;;;;;;;;;;;7.60;99.90;;;;;;5046383;28;20023;-72
2023/04/26 10:14:56;;;;;;;;;;;7.60;99.90;;;;;;5043209;28;20012;-73
2023/04/26 10:17:23;;;;;;;;;;;7.60;99.90;;;;;;5031748;28;19979;-72
2023/04/26 10:19:53;;;;;;;;;;;7.60;99.90;;;;;;5020864;28;20014;-73
2023/04/26 10:22:22;;;;;;;;;;;7.70;99.90;;;;;;5021435;28;20451;-72
2023/04/26 10:24:49;;;;;;;;;;;7.70;99.90;;;;;;5019260;28;20306;-74
2023/04/26 10:27:37;;;;;;;;;;;7.70;99.90;;;;;;5042615;28;19932;-76
2023/04/26 10:30:09;;;;;;;;;;;7.80;99.90;;;;;;5042233;28;19924;-77
2023/04/26 10:32:50;;;;;;;;;;;7.80;99.90;;;;;;5038881;28;19939;-73
2023/04/26 10:35:18;;;;;;;;;;;7.80;99.90;;;;;;5023136;28;19964;-73
2023/04/26 10:37:59;;;;;;;;;;;7.80;99.90;;;;;;5044956;28;20019;-73
2023/04/26 10:40:27;;;;;;;;;;;7.90;99.90;;;;;;5024068;28;19964;-75
2023/04/26 10:43:09;;;;;;;;;;;7.90;99.90;;;;;;5024919;28;20008;-73
2023/04/26 10:45:38;;;;;;;;;;;7.90;99.90;;;;;;5046041;28;20375;-72
2023/04/26 10:48:16;;;;;;;;;;;7.90;99.90;;;;;;5012074;28;20019;-74
2023/04/26 10:50:58;;;;;;;;;;;7.90;99.90;;;;;;5038054;28;20007;-73
2023/04/26 10:53:25;;;;;;;;;;;7.90;99.90;;;;;;5039931;28;19925;-74
2023/04/26 10:55:52;;;;;;;;;;;8.00;99.90;;;;;;5035524;28;19931;-74
2023/04/26 10:58:28;;;;;;;;;;;8.00;99.90;;;;;;5043812;28;20027;-73
2023/04/26 11:01:06;;;;;;;;;;;8.00;99.90;;;;;;5042481;28;19929;-73
2023/04/26 11:03:33;;;;;;;;;;;8.00;99.90;;;;;;5036247;28;19994;-74
2023/04/26 11:06:00;;;;;;;;;;;8.00;99.90;;;;;;5022805;28;19929;-74
2023/04/26 11:08:28;;;;;;;;;;;8.10;99.90;;;;;;5040597;28;20276;-74
2023/04/26 11:11:04;;;;;;;;;;;8.00;99.90;;;;;;5032055;28;20406;-73
2023/04/26 11:13:31;;;;;;;;;;;8.10;99.90;;;;;;5044764;28;20020;-72
2023/04/26 11:16:02;;;;;;;;;;;8.10;99.90;;;;;;5040934;28;19925;-73
2023/04/26 11:18:30;;;;;;;;;;;8.10;99.90;;;;;;5037159;28;19931;-74
2023/04/26 11:20:57;;;;;;;;;;;8.10;99.90;;;;;;5045506;28;20012;-74
2023/04/26 11:23:27;;;;;;;;;;;8.10;99.90;;;;;;5046196;28;19964;-73
2023/04/26 11:25:54;;;;;;;;;;;8.10;99.90;;;;;;5039305;28;19924;-73
2023/04/26 11:28:22;;;;;;;;;;;8.10;99.90;;;;;;5042610;28;19935;-72
2023/04/26 11:30:49;;;;;;;;;;;8.10;99.90;;;;;;5022992;28;20024;-73
2023/04/26 11:33:16;;;;;;;;;;;8.10;99.90;;;;;;5038538;28;19936;-74
2023/04/26 11:35:47;;;;;;;;;;;8.20;99.90;;;;;;5036866;28;20402;-73
2023/04/26 11:38:14;;;;;;;;;;;8.30;99.90;;;;;;5044879;28;20397;-73
2023/04/26 11:40:42;;;;;;;;;;;8.30;99.90;;;;;;5025852;28;19924;-73
2023/04/26 11:43:10;;;;;;;;;;;8.30;99.90;;;;;;5019430;28;21589;-75
2023/04/26 11:45:37;;;;;;;;;;;8.30;99.90;;;;;;5044733;28;19928;-73
2023/04/26 11:48:05;;;;;;;;;;;8.30;99.90;;;;;;5039178;28;19931;-74
2023/04/26 11:50:33;;;;;;;;;;;8.30;99.90;;;;;;5039920;28;20387;-74
2023/04/26 11:53:02;;;;;;;;;;;8.40;99.90;;;;;;5045911;28;19990;-75
2023/04/26 11:55:30;;;;;;;;;;;8.40;99.90;;;;;;5041544;28;20034;-75
2023/04/26 11:57:57;;;;;;;;;;;8.40;99.90;;;;;;5040706;28;19952;-74
2023/04/26 12:00:25;;;;;;;;;;;8.40;99.90;;;;;;5033920;28;19933;-74
2023/04/26 12:02:52;;;;;;;;;;;8.40;99.90;;;;;;5042351;28;19990;-74
2023/04/26 12:05:22;;;;;;;;;;;8.40;99.90;;;;;;5040920;28;19933;-75
2023/04/26 12:07:51;;;;;;;;;;;8.50;99.90;;;;;;5030403;28;19933;-74
2023/04/26 12:10:20;;;;;;;;;;;8.50;99.90;;;;;;5021319;28;19925;-75
2023/04/26 12:12:48;;;;;;;;;;;8.50;99.90;;;;;;5020188;28;19932;-74
2023/04/26 12:15:15;;;;;;;;;;;8.50;99.90;;;;;;5041923;28;19925;-74
2023/04/26 12:17:51;;;;;;;;;;;8.60;99.90;;;;;;5029483;28;20565;-74
2023/04/26 12:20:18;;;;;;;;;;;8.60;99.90;;;;;;5039053;28;20368;-75
2023/04/26 12:22:56;;;;;;;;;;;8.70;99.90;;;;;;5038994;28;19925;-74
2023/04/26 12:25:24;;;;;;;;;;;8.60;99.90;;;;;;5041332;28;20015;-74
2023/04/26 12:27:51;;;;;;;;;;;8.70;99.90;;;;;;5039311;28;19925;-74
2023/04/26 12:30:18;;;;;;;;;;;8.70;99.90;;;;;;5039758;28;19925;-74
2023/04/26 12:32:45;;;;;;;;;;;8.70;99.90;;;;;;5039850;28;20361;-74
2023/04/26 12:35:12;;;;;;;;;;;8.70;99.90;;;;;;5042236;28;19925;-74
2023/04/26 12:37:39;;;;;;;;;;;8.70;99.90;;;;;;5020138;28;19929;-75
2023/04/26 12:40:08;;;;;;;;;;;8.70;99.90;;;;;;5045504;28;19928;-74
2023/04/26 12:42:36;;;;;;;;;;;8.80;99.90;;;;;;5041706;28;19972;-74
2023/04/26 12:45:03;;;;;;;;;;;8.90;99.90;;;;;;5037083;28;19925;-74
2023/04/26 12:47:30;;;;;;;;;;;8.90;99.90;;;;;;5040401;28;19924;-74
2023/04/26 12:49:59;;;;;;;;;;;9.00;99.90;;;;;;5033554;28;19978;-74
2023/04/26 12:52:26;;;;;;;;;;;9.00;99.90;;;;;;5038278;28;20375;-74
2023/04/26 12:54:53;;;;;;;;;;;9.00;99.90;;;;;;5038105;28;19998;-74
2023/04/26 12:57:20;;;;;;;;;;;9.10;99.90;;;;;;5038102;28;19929;-74
2023/04/26 12:59:48;;;;;;;;;;;9.10;99.90;;;;;;5036033;28;20395;-74
2023/04/26 13:02:15;;;;;;;;;;;9.10;99.90;;;;;;5040743;28;19931;-74
2023/04/26 13:04:42;;;;;;;;;;;9.20;99.90;;;;;;5040559;28;20463;-74
2023/04/26 13:07:09;;;;;;;;;;;9.20;99.90;;;;;;5042044;28;19929;-74
2023/04/26 13:09:36;;;;;;;;;;;9.20;99.90;;;;;;5045869;28;20390;-74
2023/04/26 13:12:03;;;;;;;;;;;9.20;99.90;;;;;;5042653;28;19940;-74
2023/04/26 13:14:30;;;;;;;;;;;9.20;99.90;;;;;;5019849;28;19925;-74
2023/04/26 13:16:58;;;;;;;;;;;9.30;99.90;;;;;;5029568;28;19947;-74
2023/04/26 13:19:25;;;;;;;;;;;9.30;99.90;;;;;;5035586;28;19928;-74
2023/04/26 13:21:52;;;;;;;;;;;9.30;99.90;;;;;;5036553;28;20016;-75
2023/04/26 13:24:19;;;;;;;;;;;9.40;99.90;;;;;;5027331;28;19960;-74
2023/04/26 13:26:46;;;;;;;;;;;9.30;99.90;;;;;;5039818;28;19977;-74
2023/04/26 13:29:13;;;;;;;;;;;9.40;99.90;;;;;;5042147;28;19925;-75
2023/04/26 13:31:42;;;;;;;;;;;9.50;99.90;;;;;;5040576;28;19925;-74
2023/04/26 13:34:11;;;;;;;;;;;9.50;99.90;;;;;;5035802;28;20010;-74
2023/04/26 13:36:38;;;;;;;;;;;9.50;99.90;;;;;;5037958;28;20637;-74
2023/04/26 13:39:06;;;;;;;;;;;9.60;99.90;;;;;;5040775;28;19925;-74
2023/04/26 13:41:33;;;;;;;;;;;9.70;99.90;;;;;;5020163;28;19932;-73
2023/04/26 13:44:00;;;;;;;;;;;9.60;99.90;;;;;;5038814;28;19924;-74
2023/04/26 13:46:27;;;;;;;;;;;9.80;99.90;;;;;;5044807;28;19959;-74
2023/04/26 13:48:55;;;;;;;;;;;9.80;99.90;;;;;;5037016;28;19929;-74
2023/04/26 13:51:25;;;;;;;;;;;9.90;99.90;;;;;;5029153;28;20450;-75
2023/04/26 13:53:53;;;;;;;;;;;9.90;99.90;;;;;;5033049;28;19925;-74
2023/04/26 13:56:20;;;;;;;;;;;10.00;99.90;;;;;;5023434;28;20599;-74
2023/04/26 13:58:47;;;;;;;;;;;10.00;99.90;;;;;;5040267;28;19932;-74
2023/04/26 14:01:15;;;;;;;;;;;10.00;99.90;;;;;;5031807;28;19933;-74
2023/04/26 14:03:42;;;;;;;;;;;10.00;99.90;;;;;;5040453;28;19932;-75
2023/04/26 14:06:09;;;;;;;;;;;10.00;99.90;;;;;;5037482;28;20043;-74
2023/04/26 14:08:37;;;;;;;;;;;10.00;99.90;;;;;;5041850;28;19933;-74
2023/04/26 14:11:05;;;;;;;;;;;10.20;99.90;;;;;;5038989;28;19933;-74
2023/04/26 14:13:31;;;;;;;;;;;10.20;99.90;;;;;;5038273;28;20295;-74
2023/04/26 14:15:58;;;;;;;;;;;10.20;99.90;;;;;;5033852;28;20012;-74
2023/04/26 14:18:25;;;;;;;;;;;10.20;99.90;;;;;;5043535;28;19971;-75
2023/04/26 14:20:52;;;;;;;;;;;10.30;99.90;;;;;;5038837;28;19978;-74
2023/04/26 14:23:19;;;;;;;;;;;10.30;99.90;;;;;;5032627;28;20362;-74
2023/04/26 14:25:50;;;;;;;;;;;10.40;99.90;;;;;;5042609;28;19929;-74
2023/04/26 14:28:17;;;;;;;;;;;10.40;99.90;;;;;;5031474;28;19933;-73
2023/04/26 14:30:44;;;;;;;;;;;10.40;99.90;;;;;;5034797;28;19948;-73
2023/04/26 14:33:11;;;;;;;;;;;10.40;99.90;;;;;;5035867;28;19979;-75
2023/04/26 14:35:38;;;;;;;;;;;10.50;99.90;;;;;;5022959;28;19931;-75